Time;durP1;ratioP1;P1;durP2;ratioP2;P2;SDS_P1;SDS_P2;PMS_P1;PMS_P2;Temp;Humidity;BMP_temperature;BMP_pressure;BME280_temperature;BME280_humidity;BME280_pressure;Samples;Min_cycle;Max_cycle;Signal;HPM_P1;HPM_P2
2022/10/31 00:00:04;;;;;;;13.98;8.40;;;12.60;50.60;;;;;;7363175;19;20493;-67
2022/10/31 00:02:34;;;;;;;10.75;8.10;;;12.50;49.80;;;;;;7363219;19;20024;-67
2022/10/31 00:05:04;;;;;;;15.40;8.63;;;12.50;49.60;;;;;;7363953;19;20011;-67
2022/10/31 00:07:34;;;;;;;13.60;8.43;;;12.50;49.90;;;;;;7361366;19;20018;-67
2022/10/31 00:10:08;;;;;;;12.05;8.55;;;12.60;49.80;;;;;;7384665;19;20014;-67
2022/10/31 00:12:37;;;;;;;21.25;9.52;;;12.60;49.80;;;;;;7365991;19;20111;-67
2022/10/31 00:15:08;;;;;;;17.05;8.77;;;12.60;50.10;;;;;;7363483;19;20031;-68
2022/10/31 00:17:38;;;;;;;16.35;10.00;;;12.60;50.30;;;;;;7362347;19;20010;-67
2022/10/31 00:20:09;;;;;;;14.70;9.80;;;12.60;50.60;;;;;;7361178;19;20502;-67
2022/10/31 00:22:39;;;;;;;18.58;9.45;;;12.60;50.70;;;;;;7363172;19;20020;-67
2022/10/31 00:25:12;;;;;;;19.33;9.60;;;12.60;50.50;;;;;;7386351;19;20019;-67
2022/10/31 00:27:41;;;;;;;17.13;9.73;;;12.60;50.80;;;;;;7364803;19;20021;-68
2022/10/31 00:30:12;;;;;;;14.95;9.98;;;12.60;51.00;;;;;;7362268;19;20026;-67
2022/10/31 00:32:42;;;;;;;19.20;10.50;;;12.60;50.80;;;;;;7363530;19;20030;-67
2022/10/31 00:35:12;;;;;;;17.05;10.27;;;12.60;51.20;;;;;;7363184;19;20490;-67
2022/10/31 00:37:42;;;;;;;16.42;10.38;;;12.60;51.60;;;;;;7360564;19;20022;-67
2022/10/31 00:40:14;;;;;;;16.90;9.50;;;12.50;51.50;;;;;;7383684;19;20025;-67
2022/10/31 00:42:44;;;;;;;19.70;10.95;;;12.50;51.40;;;;;;7365557;19;20014;-67
2022/10/31 00:45:14;;;;;;;24.77;11.13;;;12.50;51.70;;;;;;7362746;19;20547;-67
2022/10/31 00:47:44;;;;;;;20.10;11.10;;;12.40;51.50;;;;;;7361502;19;20014;-67
2022/10/31 00:50:14;;;;;;;21.30;10.80;;;12.50;51.90;;;;;;7362256;19;20018;-67
2022/10/31 00:52:43;;;;;;;20.17;10.15;;;12.40;52.10;;;;;;7362953;19;20030;-67
2022/10/31 00:55:16;;;;;;;18.50;11.23;;;12.40;52.00;;;;;;7384131;19;20643;-67
2022/10/31 00:57:48;;;;;;;19.83;11.02;;;12.40;52.50;;;;;;7360247;19;20021;-67
2022/10/31 01:00:19;;;;;;;20.38;9.93;;;12.40;52.40;;;;;;7361435;19;20018;-67
2022/10/31 01:02:49;;;;;;;17.55;10.63;;;12.40;52.90;;;;;;7362094;19;20015;-67
2022/10/31 01:05:19;;;;;;;15.57;10.27;;;12.40;52.60;;;;;;7362125;19;20022;-68
2022/10/31 01:07:48;;;;;;;21.02;11.40;;;12.30;52.40;;;;;;7363131;19;20047;-67
2022/10/31 01:10:21;;;;;;;19.00;10.88;;;12.30;53.50;;;;;;7387096;19;20025;-67
2022/10/31 01:12:52;;;;;;;18.88;11.30;;;12.30;52.80;;;;;;7361894;19;20011;-67
2022/10/31 01:15:24;;;;;;;17.60;10.65;;;12.30;53.50;;;;;;7361400;19;20378;-67
2022/10/31 01:17:54;;;;;;;17.17;10.38;;;12.30;53.40;;;;;;7360801;19;20014;-68
2022/10/31 01:20:24;;;;;;;20.35;11.43;;;12.30;53.90;;;;;;7361399;19;20587;-67
2022/10/31 01:22:54;;;;;;;20.02;10.93;;;12.20;53.30;;;;;;7361043;19;20066;-67
2022/10/31 01:25:26;;;;;;;21.42;11.10;;;12.20;53.60;;;;;;7362117;19;20542;-67
2022/10/31 01:27:56;;;;;;;23.38;12.43;;;12.20;53.90;;;;;;7380424;19;20018;-68
2022/10/31 01:30:26;;;;;;;22.48;11.68;;;12.20;53.90;;;;;;7360719;19;20015;-68
2022/10/31 01:32:56;;;;;;;22.58;12.48;;;12.20;54.50;;;;;;7372900;19;20025;-67
2022/10/31 01:35:27;;;;;;;21.73;12.70;;;12.20;54.20;;;;;;7375600;19;20021;-67
2022/10/31 01:37:57;;;;;;;19.02;12.32;;;12.20;54.20;;;;;;7374055;19;20034;-67
2022/10/31 01:40:31;;;;;;;19.95;12.00;;;12.20;54.10;;;;;;7375374;19;20011;-67
2022/10/31 01:43:01;;;;;;;16.17;11.57;;;12.10;54.20;;;;;;7400551;19;20022;-67
2022/10/31 01:45:32;;;;;;;17.42;11.70;;;12.20;54.40;;;;;;7374716;19;20053;-67
2022/10/31 01:48:01;;;;;;;16.10;10.27;;;12.20;54.40;;;;;;7374128;19;20478;-67
2022/10/31 01:50:37;;;;;;;18.90;11.00;;;12.20;54.50;;;;;;7374591;19;20054;-67
2022/10/31 01:53:12;;;;;;;18.63;10.55;;;12.20;54.40;;;;;;7375388;19;20034;-67
2022/10/31 01:55:48;;;;;;;13.57;9.90;;;12.30;54.80;;;;;;7374980;19;20019;-67
2022/10/31 01:58:23;;;;;;;20.45;10.82;;;12.30;54.40;;;;;;7395654;19;20050;-67
2022/10/31 02:00:58;;;;;;;14.23;10.98;;;12.40;54.30;;;;;;7374055;19;20011;-67
2022/10/31 02:03:36;;;;;;;20.30;12.32;;;12.40;54.00;;;;;;7375508;19;20015;-67
2022/10/31 02:06:08;;;;;;;20.65;11.45;;;12.40;53.80;;;;;;7377146;19;20492;-67
2022/10/31 02:08:39;;;;;;;19.52;11.73;;;12.30;53.20;;;;;;7374066;19;20042;-67
2022/10/31 02:11:13;;;;;;;17.77;12.00;;;12.30;53.60;;;;;;7374033;19;20345;-67
2022/10/31 02:13:42;;;;;;;16.30;11.30;;;12.30;53.30;;;;;;7375028;19;20031;-67
2022/10/31 02:16:12;;;;;;;20.88;11.63;;;12.30;53.20;;;;;;7395266;19;20018;-67
2022/10/31 02:18:42;;;;;;;25.50;10.48;;;12.30;52.80;;;;;;7373216;19;20010;-67
2022/10/31 02:21:18;;;;;;;17.55;9.63;;;12.30;52.50;;;;;;7372911;19;20547;-67
2022/10/31 02:24:15;;;;;;;13.38;9.68;;;12.30;52.30;;;;;;7373701;19;20014;-68
2022/10/31 02:27:01;;;;;;;18.55;10.38;;;12.30;52.20;;;;;;7376959;19;20014;-67
2022/10/31 02:29:58;;;;;;;18.77;9.73;;;12.30;51.90;;;;;;7374063;19;20014;-67
2022/10/31 02:32:55;;;;;;;18.30;11.35;;;12.20;51.80;;;;;;7374734;19;20014;-67
2022/10/31 02:35:50;;;;;;;16.92;9.43;;;12.20;51.60;;;;;;7372863;19;20047;-67
2022/10/31 02:38:28;;;;;;;14.70;10.00;;;12.20;51.40;;;;;;7374117;19;20943;-67
2022/10/31 02:41:06;;;;;;;14.80;9.60;;;12.20;51.40;;;;;;7373958;19;20021;-68
2022/10/31 02:43:42;;;;;;;18.77;9.95;;;12.20;51.10;;;;;;7368417;19;20034;-68
2022/10/31 02:46:18;;;;;;;18.38;10.18;;;12.20;50.70;;;;;;7387493;19;20351;-67
2022/10/31 02:48:52;;;;;;;18.77;9.38;;;12.20;50.50;;;;;;7366074;19;20663;-67
2022/10/31 02:51:22;;;;;;;;;;;12.10;50.10;;;;;;7366545;19;20014;-68
2022/10/31 02:53:52;;;;;;;15.57;9.18;;;12.10;50.30;;;;;;7366841;19;19915;-67
2022/10/31 02:56:22;;;;;;;16.13;10.18;;;12.00;50.20;;;;;;7365599;19;20015;-69
2022/10/31 02:58:56;;;;;;;16.30;9.57;;;12.00;50.50;;;;;;7365899;19;20014;-66
2022/10/31 03:01:46;;;;;;;14.23;9.77;;;12.00;50.70;;;;;;7368119;19;20490;-69
2022/10/31 03:04:39;;;;;;;22.80;9.68;;;12.00;50.30;;;;;;7386524;19;20259;-69
2022/10/31 03:07:19;;;;;;;17.42;9.27;;;12.00;50.30;;;;;;7363679;19;20021;-66
2022/10/31 03:09:55;;;;;;;18.80;9.52;;;12.00;50.40;;;;;;7365200;19;20018;-69
2022/10/31 03:12:31;;;;;;;18.02;9.75;;;11.90;50.30;;;;;;7365954;19;20018;-69
2022/10/31 03:15:14;;;;;;;15.35;9.48;;;11.90;49.90;;;;;;7366242;19;20387;-69
2022/10/31 03:17:53;;;;;;;16.63;9.90;;;11.90;49.60;;;;;;7364554;19;20039;-66
2022/10/31 03:20:30;;;;;;;19.65;9.60;;;11.90;50.10;;;;;;7365176;19;20010;-69
2022/10/31 03:23:03;;;;;;;17.38;9.18;;;11.80;49.90;;;;;;7365779;19;20371;-67
2022/10/31 03:25:35;;;;;;;15.65;8.82;;;11.80;50.00;;;;;;7365382;19;20344;-67
2022/10/31 03:28:08;;;;;;;15.05;9.90;;;11.80;50.00;;;;;;7383929;19;20015;-66
2022/10/31 03:30:42;;;;;;;16.23;9.40;;;11.70;50.00;;;;;;7364605;19;20011;-67
2022/10/31 03:33:16;;;;;;;13.32;9.10;;;11.70;50.00;;;;;;7365452;19;20025;-67
2022/10/31 03:35:53;;;;;;;15.07;9.57;;;11.70;50.30;;;;;;7364860;19;20509;-69
2022/10/31 03:38:24;;;;;;;20.20;9.20;;;11.70;50.20;;;;;;7364583;19;20478;-69
2022/10/31 03:40:57;;;;;;;14.20;8.80;;;11.70;50.40;;;;;;7363683;19;20018;-69
2022/10/31 03:43:31;;;;;;;15.90;8.80;;;11.70;49.90;;;;;;7364686;19;20367;-69
2022/10/31 03:46:02;;;;;;;14.15;9.23;;;11.60;49.80;;;;;;7385477;19;20018;-69
2022/10/31 03:48:31;;;;;;;15.50;8.63;;;11.60;49.80;;;;;;7363766;19;20474;-69
2022/10/31 03:51:10;;;;;;;13.77;9.05;;;11.60;49.70;;;;;;7363703;19;20006;-69
2022/10/31 03:53:43;;;;;;;12.90;8.85;;;11.50;49.60;;;;;;7365034;19;20051;-69
2022/10/31 03:56:18;;;;;;;20.17;8.77;;;11.50;49.60;;;;;;7364390;19;20023;-69
2022/10/31 03:58:51;;;;;;;15.00;8.98;;;11.50;49.50;;;;;;7366324;19;20222;-69
2022/10/31 04:01:24;;;;;;;13.88;8.70;;;11.50;49.60;;;;;;7366563;19;20011;-69
2022/10/31 04:03:55;;;;;;;14.70;9.55;;;11.40;49.40;;;;;;7386030;19;20086;-68
2022/10/31 04:06:28;;;;;;;14.02;8.82;;;11.40;49.50;;;;;;7362532;19;20042;-68
2022/10/31 04:09:03;;;;;;;14.43;8.73;;;11.40;49.50;;;;;;7362759;19;20016;-68
2022/10/31 04:11:37;;;;;;;16.17;9.13;;;11.40;48.80;;;;;;7363819;19;20018;-67
2022/10/31 04:14:08;;;;;;;25.35;10.00;;;11.30;49.00;;;;;;7364255;19;20022;-68
2022/10/31 04:16:38;;;;;;;15.15;8.77;;;11.40;49.70;;;;;;7362432;19;20019;-68
2022/10/31 04:19:08;;;;;;;16.10;8.68;;;11.40;49.50;;;;;;7385657;19;20021;-68
2022/10/31 04:21:43;;;;;;;20.83;9.40;;;11.40;49.40;;;;;;7363162;19;20010;-68
2022/10/31 04:24:13;;;;;;;14.57;9.02;;;11.40;49.00;;;;;;7363235;19;20028;-68
2022/10/31 04:26:43;;;;;;;14.35;8.35;;;11.30;48.60;;;;;;7366071;19;20167;-68
2022/10/31 04:29:12;;;;;;;17.20;8.85;;;11.30;48.60;;;;;;7363959;19;20010;-68
2022/10/31 04:31:42;;;;;;;14.13;8.85;;;11.30;48.60;;;;;;7364262;19;20392;-68
2022/10/31 04:34:12;;;;;;;14.27;8.73;;;11.20;48.70;;;;;;7385662;19;20080;-69
2022/10/31 04:36:44;;;;;;;12.98;8.55;;;11.20;48.70;;;;;;7360800;19;20019;-68
2022/10/31 04:39:14;;;;;;;16.98;8.90;;;11.20;48.60;;;;;;7362476;19;20018;-68
2022/10/31 04:41:44;;;;;;;14.25;8.70;;;11.20;48.70;;;;;;7364681;19;20010;-68
2022/10/31 04:44:13;;;;;;;18.52;9.85;;;11.20;48.70;;;;;;7362929;19;20025;-68
2022/10/31 04:46:43;;;;;;;18.58;9.18;;;11.20;48.60;;;;;;7361554;19;20010;-68
2022/10/31 04:49:13;;;;;;;14.55;8.65;;;11.20;48.50;;;;;;7383905;19;20014;-68
2022/10/31 04:51:45;;;;;;;17.73;9.10;;;11.10;48.40;;;;;;7362700;19;20030;-68
2022/10/31 04:54:15;;;;;;;17.08;8.90;;;11.10;49.10;;;;;;7365039;19;20466;-68
2022/10/31 04:56:45;;;;;;;16.17;8.30;;;11.10;48.40;;;;;;7360811;19;20025;-68
2022/10/31 04:59:14;;;;;;;15.38;9.65;;;11.10;48.20;;;;;;7361895;19;20021;-68
2022/10/31 05:01:44;;;;;;;13.35;9.30;;;11.00;48.50;;;;;;7362345;19;20010;-68
2022/10/31 05:04:14;;;;;;;13.23;8.68;;;11.00;48.30;;;;;;7383479;19;20026;-68
2022/10/31 05:06:47;;;;;;;14.57;8.80;;;11.00;48.30;;;;;;7356755;19;20038;-68
2022/10/31 05:09:16;;;;;;;16.80;8.85;;;11.00;48.30;;;;;;7360598;19;20011;-68
2022/10/31 05:11:46;;;;;;;14.98;8.77;;;11.00;48.50;;;;;;7361772;19;20011;-68
2022/10/31 05:14:16;;;;;;;14.63;9.32;;;11.00;48.30;;;;;;7362279;19;20010;-68
2022/10/31 05:16:46;;;;;;;16.10;8.88;;;11.00;48.50;;;;;;7360361;19;20474;-68
2022/10/31 05:19:15;;;;;;;15.70;8.57;;;10.90;47.90;;;;;;7382182;19;20029;-68
2022/10/31 05:21:48;;;;;;;12.73;9.00;;;10.90;48.10;;;;;;7360856;19;20010;-68
2022/10/31 05:24:17;;;;;;;13.40;8.75;;;10.90;48.20;;;;;;7361617;19;20624;-67
2022/10/31 05:26:47;;;;;;;14.25;8.77;;;10.80;48.20;;;;;;7360454;19;20451;-67
2022/10/31 05:29:17;;;;;;;14.70;8.68;;;10.90;49.10;;;;;;7360649;19;20461;-67
2022/10/31 05:31:47;;;;;;;12.13;9.35;;;10.90;48.50;;;;;;7360797;19;21085;-67
2022/10/31 05:34:16;;;;;;;22.17;9.23;;;10.90;48.30;;;;;;7382828;19;20014;-67
2022/10/31 05:36:49;;;;;;;15.18;8.75;;;10.90;47.40;;;;;;7359267;19;20010;-67
2022/10/31 05:39:18;;;;;;;17.90;9.18;;;10.80;47.50;;;;;;7360571;19;20021;-67
2022/10/31 05:41:48;;;;;;;19.98;9.95;;;10.80;47.50;;;;;;7362227;19;20497;-67
2022/10/31 05:44:18;;;;;;;17.15;8.75;;;10.80;47.60;;;;;;7361352;19;20074;-67
2022/10/31 05:46:49;;;;;;;16.80;9.43;;;10.80;47.10;;;;;;7358078;19;20443;-67
2022/10/31 05:49:18;;;;;;;17.05;9.35;;;10.80;47.20;;;;;;7383853;19;20014;-67
2022/10/31 05:51:51;;;;;;;19.40;8.68;;;10.70;47.70;;;;;;7364474;19;20010;-68
2022/10/31 05:54:21;;;;;;;16.00;9.00;;;10.70;47.60;;;;;;7360544;19;20014;-67
2022/10/31 05:56:50;;;;;;;13.98;8.80;;;10.60;48.30;;;;;;7358021;19;20014;-67
2022/10/31 05:59:20;;;;;;;14.43;8.93;;;10.70;48.10;;;;;;7359646;19;20025;-67
2022/10/31 06:01:50;;;;;;;16.33;8.48;;;10.70;48.50;;;;;;7360256;19;20030;-67
2022/10/31 06:04:19;;;;;;;20.00;8.77;;;10.60;47.90;;;;;;7382428;19;20038;-67
2022/10/31 06:06:52;;;;;;;16.17;9.13;;;10.70;48.30;;;;;;7356721;19;20025;-67
2022/10/31 06:09:22;;;;;;;19.48;9.82;;;10.60;47.80;;;;;;7359193;19;20014;-67
2022/10/31 06:11:52;;;;;;;16.38;8.50;;;10.70;48.00;;;;;;7359730;19;20017;-66
2022/10/31 06:14:21;;;;;;;13.25;8.25;;;10.70;48.80;;;;;;7360239;19;20082;-66
2022/10/31 06:16:51;;;;;;;14.95;8.32;;;10.70;47.10;;;;;;7358138;19;20021;-67
2022/10/31 06:19:21;;;;;;;15.30;8.70;;;10.70;47.50;;;;;;7384946;19;20014;-67
2022/10/31 06:21:53;;;;;;;18.08;9.05;;;10.60;47.00;;;;;;7366630;19;20054;-67
2022/10/31 06:24:23;;;;;;;15.85;9.15;;;10.60;46.90;;;;;;7366517;19;20042;-66
2022/10/31 06:26:52;;;;;;;16.63;9.18;;;10.70;47.90;;;;;;7366784;19;20014;-67
2022/10/31 06:29:22;;;;;;;17.25;9.52;;;10.70;48.30;;;;;;7366573;19;20940;-68
2022/10/31 06:31:54;;;;;;;16.55;8.60;;;10.70;47.60;;;;;;7366320;19;20015;-68
2022/10/31 06:34:24;;;;;;;13.13;9.07;;;10.80;47.50;;;;;;7366490;19;20478;-68
2022/10/31 06:36:56;;;;;;;28.63;9.10;;;10.80;46.80;;;;;;7385529;19;20355;-68
2022/10/31 06:39:26;;;;;;;19.20;10.40;;;10.80;46.30;;;;;;7365539;19;20078;-69
2022/10/31 06:41:55;;;;;;;19.65;12.20;;;10.90;46.20;;;;;;7367531;19;20007;-68
2022/10/31 06:44:25;;;;;;;18.55;10.07;;;11.00;44.70;;;;;;7367217;19;20017;-68
2022/10/31 06:46:55;;;;;;;13.73;8.43;;;11.10;44.50;;;;;;7365627;19;20014;-68
2022/10/31 06:49:25;;;;;;;15.88;7.95;;;11.10;43.50;;;;;;7364511;19;20035;-68
2022/10/31 06:51:57;;;;;;;14.15;7.47;;;11.10;42.20;;;;;;7387424;19;20018;-68
2022/10/31 06:54:27;;;;;;;12.60;6.63;;;11.10;41.00;;;;;;7366036;19;20011;-68
2022/10/31 06:56:56;;;;;;;14.55;7.53;;;11.10;41.70;;;;;;7364048;19;20515;-68
2022/10/31 06:59:26;;;;;;;12.70;7.03;;;11.10;41.20;;;;;;7365838;19;20486;-68
2022/10/31 07:01:56;;;;;;;16.23;7.88;;;11.10;41.20;;;;;;7365478;19;20042;-68
2022/10/31 07:04:26;;;;;;;11.48;7.20;;;11.20;41.30;;;;;;7365822;19;20084;-68
2022/10/31 07:06:59;;;;;;;13.45;7.40;;;11.20;40.80;;;;;;7383660;19;20014;-68
2022/10/31 07:09:29;;;;;;;14.32;7.25;;;11.20;40.80;;;;;;7364678;19;20010;-68
2022/10/31 07:11:58;;;;;;;14.27;7.65;;;11.30;40.30;;;;;;7365536;19;20486;-68
2022/10/31 07:14:28;;;;;;;14.15;8.13;;;11.40;40.50;;;;;;7365532;19;20482;-68
2022/10/31 07:16:58;;;;;;;12.45;7.93;;;11.30;39.10;;;;;;7363652;19;20010;-68
2022/10/31 07:19:30;;;;;;;19.25;8.38;;;11.40;39.50;;;;;;7362008;19;20026;-68
2022/10/31 07:22:02;;;;;;;13.95;7.40;;;11.50;38.90;;;;;;7385796;19;20665;-68
2022/10/31 07:24:32;;;;;;;15.27;7.38;;;11.60;38.80;;;;;;7364697;19;20010;-68
2022/10/31 07:27:02;;;;;;;12.15;7.13;;;11.70;38.30;;;;;;7365066;19;20015;-68
2022/10/31 07:29:32;;;;;;;12.48;7.20;;;11.70;36.70;;;;;;7363267;19;20039;-69
2022/10/31 07:32:02;;;;;;;10.52;6.78;;;11.70;36.00;;;;;;7364874;19;20018;-68
2022/10/31 07:34:31;;;;;;;13.95;7.78;;;11.70;35.30;;;;;;7364173;19;20498;-68
2022/10/31 07:37:04;;;;;;;12.77;7.65;;;11.80;35.30;;;;;;7384581;19;20014;-68
2022/10/31 07:39:33;;;;;;;14.38;7.63;;;11.80;34.50;;;;;;7363096;19;20014;-68
2022/10/31 07:42:03;;;;;;;11.88;7.72;;;11.90;34.50;;;;;;7366961;19;20014;-69
2022/10/31 07:44:33;;;;;;;14.10;7.50;;;12.00;34.50;;;;;;7364238;19;20372;-67
2022/10/31 07:47:03;;;;;;;13.38;7.50;;;12.00;33.20;;;;;;7362037;19;20470;-67
2022/10/31 07:49:32;;;;;;;10.90;7.50;;;12.10;33.30;;;;;;7363208;19;20514;-69
2022/10/31 07:52:05;;;;;;;10.27;7.10;;;12.10;31.10;;;;;;7385311;19;20344;-67
2022/10/31 07:54:34;;;;;;;12.85;7.68;;;12.20;32.30;;;;;;7363151;19;20663;-67
2022/10/31 07:57:04;;;;;;;14.05;7.38;;;12.20;30.80;;;;;;7360472;19;20022;-67
2022/10/31 07:59:34;;;;;;;13.45;7.47;;;12.30;31.70;;;;;;7360035;19;20024;-68
2022/10/31 08:02:04;;;;;;;13.93;7.82;;;12.40;30.50;;;;;;7362772;19;20017;-67
2022/10/31 08:04:34;;;;;;;10.73;7.05;;;12.50;29.30;;;;;;7363593;19;20018;-69
2022/10/31 08:07:06;;;;;;;11.10;7.38;;;12.60;28.20;;;;;;7382475;19;20432;-69
2022/10/31 08:09:36;;;;;;;9.38;6.50;;;12.60;27.30;;;;;;7361829;19;20026;-69
2022/10/31 08:12:07;;;;;;;10.60;6.57;;;12.70;26.20;;;;;;7362114;19;20026;-69
2022/10/31 08:14:37;;;;;;;14.32;6.95;;;12.80;25.00;;;;;;7363078;19;20043;-67
2022/10/31 08:17:06;;;;;;;13.70;6.85;;;12.90;24.10;;;;;;7360227;19;20046;-68
2022/10/31 08:19:36;;;;;;;20.60;10.13;;;12.90;23.10;;;;;;7361892;19;20513;-68
2022/10/31 08:22:09;;;;;;;25.35;12.63;;;13.10;23.00;;;;;;7384132;19;20018;-67
2022/10/31 08:24:38;;;;;;;11.05;6.40;;;13.20;21.70;;;;;;7362815;19;20007;-69
2022/10/31 08:27:28;;;;;;;11.70;6.95;;;13.20;21.30;;;;;;7363877;19;20474;-68
2022/10/31 08:29:58;;;;;;;12.82;7.95;;;13.30;20.00;;;;;;7361671;19;20011;-67
2022/10/31 08:32:27;;;;;;;10.20;7.07;;;13.30;20.30;;;;;;7362852;19;20030;-68
2022/10/31 08:34:58;;;;;;;11.23;6.78;;;13.40;20.60;;;;;;7361940;19;20050;-68
2022/10/31 08:37:30;;;;;;;16.02;6.90;;;13.40;19.00;;;;;;7362112;19;20014;-68
2022/10/31 08:40:00;;;;;;;12.88;7.47;;;13.40;18.70;;;;;;7386362;19;20014;-67
2022/10/31 08:42:30;;;;;;;14.70;7.15;;;13.50;18.50;;;;;;7362349;19;20010;-67
2022/10/31 08:45:00;;;;;;;13.75;7.97;;;13.40;17.40;;;;;;7360639;19;20034;-67
2022/10/31 08:47:30;;;;;;;13.43;6.95;;;13.50;18.30;;;;;;7359190;19;20011;-68
2022/10/31 08:49:59;;;;;;;13.13;7.88;;;13.30;17.30;;;;;;7360970;19;20011;-67
2022/10/31 08:52:32;;;;;;;16.05;7.75;;;13.20;17.20;;;;;;7361937;19;20026;-68
2022/10/31 08:55:22;;;;;;;15.00;7.80;;;13.30;19.70;;;;;;7379681;19;20077;-70
2022/10/31 08:57:57;;;;;;;13.75;7.05;;;13.40;18.50;;;;;;7380629;19;20017;-68
2022/10/31 09:00:28;;;;;;;16.60;8.38;;;13.60;17.50;;;;;;7359405;19;20014;-68
2022/10/31 09:02:59;;;;;;;12.50;8.15;;;13.60;16.80;;;;;;7360727;19;20014;-68
2022/10/31 09:05:29;;;;;;;21.52;7.70;;;13.70;16.50;;;;;;7360939;19;20048;-68
2022/10/31 09:08:04;;;;;;;15.60;7.72;;;13.80;16.00;;;;;;7359722;19;20023;-68
2022/10/31 09:10:36;;;;;;;20.60;7.88;;;13.70;16.80;;;;;;7360338;19;20042;-68
2022/10/31 09:13:07;;;;;;;15.80;7.15;;;13.80;17.00;;;;;;7382771;19;20219;-68
2022/10/31 09:15:39;;;;;;;16.05;7.60;;;13.90;16.50;;;;;;7360092;19;20014;-68
2022/10/31 09:18:10;;;;;;;11.95;7.15;;;14.10;15.00;;;;;;7359429;19;20011;-68
2022/10/31 09:20:41;;;;;;;15.68;7.20;;;14.00;14.20;;;;;;7360634;19;20015;-68
2022/10/31 09:23:16;;;;;;;16.15;7.20;;;14.20;14.30;;;;;;7361005;19;20014;-68
2022/10/31 09:25:47;;;;;;;12.48;6.53;;;14.20;11.50;;;;;;7362937;19;20725;-68
2022/10/31 09:28:21;;;;;;;13.80;7.07;;;14.30;10.80;;;;;;7379846;19;20474;-68
2022/10/31 09:30:53;;;;;;;14.95;7.05;;;14.40;9.40;;;;;;7359781;19;20295;-68
2022/10/31 09:33:24;;;;;;;13.40;6.60;;;14.60;10.00;;;;;;7361696;19;20003;-68
2022/10/31 09:35:54;;;;;;;15.45;6.88;;;14.60;9.30;;;;;;7362489;19;20131;-68
2022/10/31 09:38:26;;;;;;;16.00;6.28;;;14.60;7.30;;;;;;7360777;19;20014;-68
2022/10/31 09:41:03;;;;;;;15.13;6.18;;;14.40;7.00;;;;;;7360573;19;20475;-68
2022/10/31 09:43:43;;;;;;;16.70;7.05;;;14.50;7.50;;;;;;7360515;19;20029;-68
2022/10/31 09:46:21;;;;;;;13.48;5.80;;;14.60;7.20;;;;;;7380970;19;20023;-68
2022/10/31 09:49:01;;;;;;;12.35;6.53;;;14.80;6.20;;;;;;7358136;19;20025;-68
2022/10/31 09:51:34;;;;;;;9.77;6.50;;;15.00;6.40;;;;;;7359836;19;20053;-68
2022/10/31 09:54:13;;;;;;;10.63;5.93;;;14.90;4.00;;;;;;7365908;19;20018;-68
2022/10/31 09:56:43;;;;;;;14.15;6.55;;;15.00;4.80;;;;;;7366054;19;20014;-68
2022/10/31 09:59:26;;;;;;;10.77;6.47;;;15.10;3.80;;;;;;7367694;19;20015;-68
2022/10/31 10:02:00;;;;;;;12.73;6.40;;;15.40;4.00;;;;;;7367607;19;20046;-68
2022/10/31 10:04:39;;;;;;;9.07;6.27;;;15.50;3.00;;;;;;7367444;19;20513;-68
2022/10/31 10:07:16;;;;;;;12.88;6.32;;;15.50;2.00;;;;;;7386324;19;20028;-68
2022/10/31 10:09:48;;;;;;;13.23;6.82;;;15.50;2.60;;;;;;7366839;19;20006;-68
2022/10/31 10:12:26;;;;;;;12.48;5.95;;;15.50;1.00;;;;;;7366800;19;20010;-68
2022/10/31 10:15:25;;;;;;;11.60;6.07;;;15.60;2.30;;;;;;7366801;19;20015;-68
2022/10/31 10:18:08;;;;;;;10.27;6.13;;;15.80;1.30;;;;;;7365785;19;20011;-69
2022/10/31 10:20:43;;;;;;;11.80;6.35;;;15.70;1.90;;;;;;7365795;19;20536;-67
2022/10/31 10:23:31;;;;;;;11.90;6.57;;;15.70;1.00;;;;;;7366899;19;20015;-68
2022/10/31 10:26:12;;;;;;;13.38;6.20;;;15.60;1.00;;;;;;7368382;19;20010;-68
2022/10/31 10:28:47;;;;;;;14.00;6.57;;;15.70;1.00;;;;;;7364782;19;20047;-67
2022/10/31 10:31:17;;;;;;;;;;;15.70;1.00;;;;;;7390783;19;20467;-68
2022/10/31 10:34:01;;;;;;;10.52;7.13;;;15.80;1.00;;;;;;7366049;19;19923;-68
2022/10/31 10:36:38;;;;;;;11.68;6.47;;;15.80;1.00;;;;;;7363763;19;20018;-68
2022/10/31 10:39:16;;;;;;;11.23;6.03;;;15.90;1.00;;;;;;7365190;19;20577;-67
2022/10/31 10:49:58;;;;;;;13.65;6.50;;;16.00;1.00;;;;;;7364643;19;20509;-69
2022/10/31 10:52:36;;;;;;;13.93;6.70;;;16.00;1.00;;;;;;7365341;19;20020;-68
2022/10/31 10:55:25;;;;;;;12.05;6.45;;;16.00;1.00;;;;;;7386507;19;20482;-68
2022/10/31 10:58:03;;;;;;;9.93;6.20;;;16.30;1.00;;;;;;7362198;19;20025;-68
2022/10/31 11:00:36;;;;;;;11.13;5.68;;;16.40;1.00;;;;;;7363392;19;20623;-67
2022/10/31 11:03:07;;;;;;;15.95;5.93;;;16.40;1.00;;;;;;7363450;19;20022;-69
2022/10/31 11:05:42;;;;;;;14.32;6.00;;;16.40;1.00;;;;;;7346256;19;20400;-68
2022/10/31 11:08:11;;;;;;;16.23;8.95;;;16.60;1.00;;;;;;7351252;19;20006;-68
2022/10/31 11:10:42;;;;;;;13.73;6.50;;;16.70;1.00;;;;;;7361560;19;20028;-68
2022/10/31 11:13:26;;;;;;;11.43;6.18;;;16.50;1.00;;;;;;7381245;19;20025;-68
2022/10/31 11:16:02;;;;;;;9.45;5.85;;;16.50;1.00;;;;;;7356410;19;20364;-68
2022/10/31 11:18:34;;;;;;;12.65;6.72;;;16.50;1.00;;;;;;7351685;19;20018;-68
2022/10/31 11:21:06;;;;;;;10.80;5.90;;;16.60;1.00;;;;;;7356710;19;20025;-68
2022/10/31 11:23:36;;;;;;;12.63;5.88;;;16.70;1.00;;;;;;7359687;19;20060;-68
2022/10/31 11:26:09;;;;;;;9.75;6.28;;;16.70;1.00;;;;;;7348319;19;20046;-68
2022/10/31 11:28:41;;;;;;;14.55;6.15;;;16.50;1.00;;;;;;7356049;19;20018;-68
2022/10/31 11:31:15;;;;;;;10.65;5.72;;;16.70;1.00;;;;;;7380474;19;20042;-68
2022/10/31 11:33:50;;;;;;;15.65;6.30;;;16.70;1.00;;;;;;7359034;19;20027;-68
2022/10/31 11:36:24;;;;;;;11.25;6.60;;;16.60;1.00;;;;;;7339950;19;20014;-68
2022/10/31 11:38:55;;;;;;;9.93;6.07;;;16.80;1.00;;;;;;7359474;19;20006;-68
2022/10/31 11:41:29;;;;;;;11.43;6.22;;;16.80;1.00;;;;;;7360232;19;20014;-68
2022/10/31 11:44:13;;;;;;;16.52;6.70;;;16.90;1.00;;;;;;7357450;19;20013;-69
2022/10/31 11:47:00;;;;;;;9.17;6.00;;;17.10;1.00;;;;;;7331105;19;20014;-70
2022/10/31 11:49:33;;;;;;;19.05;6.15;;;17.00;1.00;;;;;;7352991;19;20014;-68
2022/10/31 11:52:07;;;;;;;12.73;6.47;;;17.10;1.00;;;;;;7374472;19;20736;-68
2022/10/31 11:54:44;;;;;;;11.05;6.22;;;17.00;1.00;;;;;;7352765;19;20003;-68
2022/10/31 11:57:25;;;;;;;10.18;5.88;;;16.80;1.00;;;;;;7331916;19;20095;-68
2022/10/31 11:59:59;;;;;;;12.55;5.90;;;16.70;1.00;;;;;;7353791;19;20010;-69
2022/10/31 12:02:30;;;;;;;14.38;6.10;;;16.90;1.00;;;;;;7353362;19;20034;-68
2022/10/31 12:05:11;;;;;;;13.82;6.07;;;17.10;1.00;;;;;;7351382;19;20014;-68
2022/10/31 12:07:41;;;;;;;15.85;6.95;;;17.30;1.00;;;;;;7330535;19;20089;-68
2022/10/31 12:10:14;;;;;;;9.65;6.63;;;17.20;1.00;;;;;;7372483;19;20021;-68
2022/10/31 12:12:57;;;;;;;14.88;6.88;;;17.10;1.00;;;;;;7353294;19;20011;-68
2022/10/31 12:15:39;;;;;;;13.40;7.07;;;17.30;1.00;;;;;;7351780;19;20014;-68
2022/10/31 12:18:43;;;;;;;12.82;6.95;;;17.50;1.00;;;;;;7333390;19;20010;-68
2022/10/31 12:21:26;;;;;;;15.85;6.68;;;17.50;1.00;;;;;;7350337;19;20026;-69
2022/10/31 12:24:11;;;;;;;16.13;7.47;;;17.60;1.00;;;;;;7349697;19;20022;-68
2022/10/31 12:26:51;;;;;;;13.23;6.88;;;17.70;1.00;;;;;;7331951;19;20023;-68
2022/10/31 12:29:50;;;;;;;11.25;6.05;;;17.70;1.00;;;;;;7350837;19;20017;-68
2022/10/31 12:32:33;;;;;;;18.52;6.85;;;17.70;1.00;;;;;;7352745;19;20467;-68
2022/10/31 12:35:19;;;;;;;15.68;6.93;;;17.70;1.00;;;;;;7350965;19;20018;-68
2022/10/31 12:38:01;;;;;;;18.88;7.47;;;17.50;1.00;;;;;;7331036;19;20160;-68
2022/10/31 12:40:44;;;;;;;10.65;6.03;;;17.70;1.00;;;;;;7352001;19;20434;-68
2022/10/31 12:43:31;;;;;;;11.90;6.70;;;17.70;1.00;;;;;;7373986;19;20601;-68
2022/10/31 12:46:05;;;;;;;15.13;6.72;;;17.80;1.00;;;;;;7345601;19;20010;-68
2022/10/31 12:49:04;;;;;;;18.20;7.05;;;17.80;1.00;;;;;;7343685;19;20014;-69
2022/10/31 12:51:41;;;;;;;14.13;7.00;;;17.80;1.00;;;;;;7347635;19;20006;-69
2022/10/31 12:54:28;;;;;;;18.58;7.10;;;17.60;1.00;;;;;;7348950;19;20019;-69
2022/10/31 12:57:09;;;;;;;15.20;7.00;;;17.70;1.00;;;;;;7328113;19;20010;-69
2022/10/31 12:59:43;;;;;;;13.98;6.28;;;17.70;1.00;;;;;;7349295;19;20003;-68
2022/10/31 13:02:21;;;;;;;;;;;17.70;1.00;;;;;;7351140;19;20015;-68
2022/10/31 13:04:58;;;;;;;58.42;36.28;;;17.70;1.00;;;;;;7346354;19;19915;-68
2022/10/31 13:07:34;;;;;;;11.95;6.47;;;17.70;1.00;;;;;;7331997;19;20014;-68
2022/10/31 13:10:09;;;;;;;16.00;8.27;;;17.60;1.00;;;;;;7367464;19;20021;-69
2022/10/31 13:12:39;;;;;;;16.25;7.63;;;17.70;1.00;;;;;;7347663;19;20015;-68
2022/10/31 13:15:19;;;;;;;13.45;7.68;;;17.60;1.00;;;;;;7348690;19;20344;-68
2022/10/31 13:17:52;;;;;;;15.23;7.68;;;17.60;1.00;;;;;;7329542;19;20019;-69